<?xml version="1.0" encoding="UTF-8" standalone="no" ?><gpx xmlns="http://www.topografix.com/GPX/1/1" xmlns:gpxx="http://www.garmin.com/xmlschemas/GpxExtensions/v3" xmlns:wptx1="http://www.garmin.com/xmlschemas/WaypointExtension/v1" xmlns:gpxtpx="http://www.garmin.com/xmlschemas/TrackPointExtension/v1" creator="GuideVTT.com" version="1.1" xmlns:xsi="http://www.w3.org/2001/XMLSchema-instance" xsi:schemaLocation="http://www.topografix.com/GPX/1/1 http://www.topografix.com/GPX/1/1/gpx.xsd http://www.garmin.com/xmlschemas/GpxExtensions/v3 http://www8.garmin.com/xmlschemas/GpxExtensionsv3.xsd http://www.garmin.com/xmlschemas/WaypointExtension/v1 http://www8.garmin.com/xmlschemas/WaypointExtensionv1.xsd http://www.garmin.com/xmlschemas/TrackPointExtension/v1 http://www.garmin.com/xmlschemas/TrackPointExtensionv1.xsd">
<metadata><link href="http://www.garmin.com"><text>Garmin International</text></link><time>2013-06-22T15:13:50Z</time></metadata>
<trk><name>rp_vtt_2011_1.gpx</name><extensions><gpxx:TrackExtension><gpxx:DisplayColor>Cyan</gpxx:DisplayColor></gpxx:TrackExtension></extensions><trkseg>
<trkpt lat="46.09921217" lon="7.51466990"><ele>1681.483154</ele><time>2011-10-05T09:13:04Z</time></trkpt>
<trkpt lat="46.10049963" lon="7.51398325"><ele>1693.019043</ele><time>2011-10-05T09:18:57Z</time></trkpt>
<trkpt lat="46.10223770" lon="7.51389742"><ele>1707.438721</ele><time>2011-10-05T09:20:37Z</time></trkpt>
<trkpt lat="46.10251665" lon="7.51389742"><ele>1712.245361</ele><time>2011-10-05T09:20:55Z</time></trkpt>
<trkpt lat="46.10311747" lon="7.51449823"><ele>1722.819824</ele><time>2011-10-05T09:21:43Z</time></trkpt>
<trkpt lat="46.10384703" lon="7.51434803"><ele>1725.223145</ele><time>2011-10-05T09:22:35Z</time></trkpt>
<trkpt lat="46.10404015" lon="7.51464844"><ele>1724.742676</ele><time>2011-10-05T09:23:27Z</time></trkpt>
<trkpt lat="46.10434055" lon="7.51466990"><ele>1726.665283</ele><time>2011-10-05T09:23:37Z</time></trkpt>
<trkpt lat="46.10541344" lon="7.51323223"><ele>1739.642822</ele><time>2011-10-05T09:24:51Z</time></trkpt>
<trkpt lat="46.10597134" lon="7.51348972"><ele>1746.852783</ele><time>2011-10-05T09:25:20Z</time></trkpt>
<trkpt lat="46.10625029" lon="7.51336098"><ele>1746.852783</ele><time>2011-10-05T09:25:32Z</time></trkpt>
<trkpt lat="46.10655069" lon="7.51250267"><ele>1747.814209</ele><time>2011-10-05T09:25:52Z</time></trkpt>
<trkpt lat="46.10738754" lon="7.51211643"><ele>1750.697998</ele><time>2011-10-05T09:26:33Z</time></trkpt>
<trkpt lat="46.10788107" lon="7.51089334"><ele>1761.753418</ele><time>2011-10-05T09:27:35Z</time></trkpt>
<trkpt lat="46.10837460" lon="7.51117229"><ele>1768.482422</ele><time>2011-10-05T09:28:08Z</time></trkpt>
<trkpt lat="46.10858917" lon="7.51074314"><ele>1772.808594</ele><time>2011-10-05T09:28:34Z</time></trkpt>
<trkpt lat="46.10968351" lon="7.50975609"><ele>1785.30542</ele><time>2011-10-05T09:29:58Z</time></trkpt>
<trkpt lat="46.11030579" lon="7.50977755"><ele>1794.437988</ele><time>2011-10-05T09:30:42Z</time></trkpt>
<trkpt lat="46.11062765" lon="7.50934839"><ele>1797.802734</ele><time>2011-10-05T09:31:14Z</time></trkpt>
<trkpt lat="46.11099243" lon="7.50919819"><ele>1802.128418</ele><time>2011-10-05T09:31:43Z</time></trkpt>
<trkpt lat="46.11118555" lon="7.50866175"><ele>1807.416016</ele><time>2011-10-05T09:32:13Z</time></trkpt>
<trkpt lat="46.11195803" lon="7.50799656"><ele>1815.106445</ele><time>2011-10-05T09:34:15Z</time></trkpt>
<trkpt lat="46.11240864" lon="7.50705242"><ele>1823.758301</ele><time>2011-10-05T09:35:03Z</time></trkpt>
<trkpt lat="46.11290216" lon="7.50651598"><ele>1827.123047</ele><time>2011-10-05T09:35:36Z</time></trkpt>
<trkpt lat="46.11328840" lon="7.50531435"><ele>1838.178223</ele><time>2011-10-05T09:36:29Z</time></trkpt>
<trkpt lat="46.11339569" lon="7.50548601"><ele>1839.139404</ele><time>2011-10-05T09:36:38Z</time></trkpt>
<trkpt lat="46.11303091" lon="7.50814676"><ele>1858.846436</ele><time>2011-10-05T09:38:26Z</time></trkpt>
<trkpt lat="46.11215115" lon="7.51177311"><ele>1887.205322</ele><time>2011-10-05T09:41:26Z</time></trkpt>
<trkpt lat="46.11225843" lon="7.51175165"><ele>1889.12793</ele><time>2011-10-05T09:41:34Z</time></trkpt>
<trkpt lat="46.11255884" lon="7.51110792"><ele>1893.93457</ele><time>2011-10-05T09:42:10Z</time></trkpt>
<trkpt lat="46.11337423" lon="7.51018524"><ele>1906.431641</ele><time>2011-10-05T09:43:35Z</time></trkpt>
<trkpt lat="46.11386776" lon="7.50943422"><ele>1914.12207</ele><time>2011-10-05T09:44:31Z</time></trkpt>
<trkpt lat="46.11427546" lon="7.50911236"><ele>1917.967529</ele><time>2011-10-05T09:45:04Z</time></trkpt>
<trkpt lat="46.11431837" lon="7.50872612"><ele>1923.254883</ele><time>2011-10-05T09:45:26Z</time></trkpt>
<trkpt lat="46.11466169" lon="7.50849009"><ele>1927.580566</ele><time>2011-10-05T09:46:04Z</time></trkpt>
<trkpt lat="46.11489773" lon="7.50803947"><ele>1934.790771</ele><time>2011-10-05T09:46:47Z</time></trkpt>
<trkpt lat="46.11528397" lon="7.50784636"><ele>1942.481201</ele><time>2011-10-05T09:47:32Z</time></trkpt>
<trkpt lat="46.11517668" lon="7.50921965"><ele>1952.574951</ele><time>2011-10-05T09:48:51Z</time></trkpt>
<trkpt lat="46.11459732" lon="7.51095772"><ele>1959.304199</ele><time>2011-10-05T09:51:18Z</time></trkpt>
<trkpt lat="46.11391068" lon="7.51207352"><ele>1969.398193</ele><time>2011-10-05T09:52:38Z</time></trkpt>
<trkpt lat="46.11421108" lon="7.51295328"><ele>1980.934082</ele><time>2011-10-05T09:53:47Z</time></trkpt>
<trkpt lat="46.11421108" lon="7.51224518"><ele>1985.259766</ele><time>2011-10-05T09:54:31Z</time></trkpt>
<trkpt lat="46.11500502" lon="7.51153708"><ele>1989.585693</ele><time>2011-10-05T09:55:28Z</time></trkpt>
<trkpt lat="46.11558437" lon="7.51042128"><ele>1997.276367</ele><time>2011-10-05T09:56:28Z</time></trkpt>
<trkpt lat="46.11635685" lon="7.51001358"><ele>2009.773193</ele><time>2011-10-05T09:57:48Z</time></trkpt>
<trkpt lat="46.11672163" lon="7.50924110"><ele>2019.867188</ele><time>2011-10-05T09:58:52Z</time></trkpt>
<trkpt lat="46.11687183" lon="7.50924110"><ele>2023.231934</ele><time>2011-10-05T09:59:11Z</time></trkpt>
<trkpt lat="46.11667871" lon="7.51104355"><ele>2041.496826</ele><time>2011-10-05T10:01:07Z</time></trkpt>
<trkpt lat="46.11637831" lon="7.51194477"><ele>2052.552002</ele><time>2011-10-05T10:03:29Z</time></trkpt>
<trkpt lat="46.11607790" lon="7.51396179"><ele>2070.817139</ele><time>2011-10-05T10:05:40Z</time></trkpt>
<trkpt lat="46.11629248" lon="7.51574278"><ele>2087.159424</ele><time>2011-10-05T10:07:36Z</time></trkpt>
<trkpt lat="46.11620665" lon="7.51694441"><ele>2096.292236</ele><time>2011-10-05T10:08:45Z</time></trkpt>
<trkpt lat="46.11569166" lon="7.51741648"><ele>2101.098633</ele><time>2011-10-05T10:09:26Z</time></trkpt>
<trkpt lat="46.11541271" lon="7.51793146"><ele>2105.905029</ele><time>2011-10-05T10:09:56Z</time></trkpt>
<trkpt lat="46.11534834" lon="7.51893997"><ele>2113.595703</ele><time>2011-10-05T10:11:40Z</time></trkpt>
<trkpt lat="46.11569166" lon="7.51984119"><ele>2117.921631</ele><time>2011-10-05T10:12:35Z</time></trkpt>
<trkpt lat="46.11567020" lon="7.52037764"><ele>2122.728271</ele><time>2011-10-05T10:13:10Z</time></trkpt>
<trkpt lat="46.11605644" lon="7.52052784"><ele>2128.015625</ele><time>2011-10-05T10:13:48Z</time></trkpt>
<trkpt lat="46.11612082" lon="7.52012014"><ele>2129.45752</ele><time>2011-10-05T10:14:15Z</time></trkpt>
<trkpt lat="46.11629248" lon="7.52020597"><ele>2132.341553</ele><time>2011-10-05T10:14:35Z</time></trkpt>
<trkpt lat="46.11607790" lon="7.52134323"><ele>2143.396729</ele><time>2011-10-05T10:15:54Z</time></trkpt>
<trkpt lat="46.11639977" lon="7.52108574"><ele>2148.683838</ele><time>2011-10-05T10:16:24Z</time></trkpt>
<trkpt lat="46.11650705" lon="7.52061367"><ele>2151.567871</ele><time>2011-10-05T10:16:54Z</time></trkpt>
<trkpt lat="46.11732244" lon="7.52033472"><ele>2161.181152</ele><time>2011-10-05T10:18:10Z</time></trkpt>
<trkpt lat="46.11736536" lon="7.51941204"><ele>2168.390869</ele><time>2011-10-05T10:19:06Z</time></trkpt>
<trkpt lat="46.11783743" lon="7.51921892"><ele>2180.407471</ele><time>2011-10-05T10:19:57Z</time></trkpt>
<trkpt lat="46.11783743" lon="7.52091408"><ele>2194.346436</ele><time>2011-10-05T10:21:47Z</time></trkpt>
<trkpt lat="46.11740828" lon="7.52168655"><ele>2208.766357</ele><time>2011-10-05T11:24:01Z</time></trkpt>
<trkpt lat="46.11738682" lon="7.52211571"><ele>2215.495605</ele><time>2011-10-05T11:24:37Z</time></trkpt>
<trkpt lat="46.11708641" lon="7.52282381"><ele>2222.705566</ele><time>2011-10-05T11:25:40Z</time></trkpt>
<trkpt lat="46.11704350" lon="7.52374649"><ele>2230.395996</ele><time>2011-10-05T11:26:47Z</time></trkpt>
<trkpt lat="46.11760139" lon="7.52254486"><ele>2244.334961</ele><time>2011-10-05T11:28:29Z</time></trkpt>
<trkpt lat="46.11813784" lon="7.52209425"><ele>2249.141602</ele><time>2011-10-05T11:29:22Z</time></trkpt>
<trkpt lat="46.11856699" lon="7.52207279"><ele>2251.544922</ele><time>2011-10-05T11:30:01Z</time></trkpt>
<trkpt lat="46.11899614" lon="7.52145052"><ele>2258.754883</ele><time>2011-10-05T11:30:52Z</time></trkpt>
<trkpt lat="46.11925364" lon="7.52063513"><ele>2266.445313</ele><time>2011-10-05T11:31:48Z</time></trkpt>
<trkpt lat="46.11931801" lon="7.52072096"><ele>2267.406494</ele><time>2011-10-05T11:31:57Z</time></trkpt>
<trkpt lat="46.11916780" lon="7.52248049"><ele>2285.191162</ele><time>2011-10-05T11:33:48Z</time></trkpt>
<trkpt lat="46.11820221" lon="7.52389669"><ele>2298.168701</ele><time>2011-10-05T11:35:41Z</time></trkpt>
<trkpt lat="46.11807346" lon="7.52572060"><ele>2314.991943</ele><time>2011-10-05T11:37:43Z</time></trkpt>
<trkpt lat="46.11858845" lon="7.52447605"><ele>2328.930908</ele><time>2011-10-05T11:39:22Z</time></trkpt>
<trkpt lat="46.11970425" lon="7.52471209"><ele>2342.389648</ele><time>2011-10-05T11:41:20Z</time></trkpt>
<trkpt lat="46.12114191" lon="7.52194405"><ele>2375.554932</ele><time>2011-10-05T11:45:19Z</time></trkpt>
<trkpt lat="46.12122774" lon="7.52104282"><ele>2384.207031</ele><time>2011-10-05T11:46:26Z</time></trkpt>
<trkpt lat="46.12150669" lon="7.52039909"><ele>2389.494141</ele><time>2011-10-05T11:47:19Z</time></trkpt>
<trkpt lat="46.12180710" lon="7.51743793"><ele>2418.33374</ele><time>2011-10-05T11:52:25Z</time></trkpt>
<trkpt lat="46.12193584" lon="7.51692295"><ele>2421.698242</ele><time>2011-10-05T11:53:02Z</time></trkpt>
<trkpt lat="46.12234354" lon="7.51621485"><ele>2428.427734</ele><time>2011-10-05T11:54:08Z</time></trkpt>
<trkpt lat="46.12309456" lon="7.51561403"><ele>2437.560059</ele><time>2011-10-05T11:55:36Z</time></trkpt>
<trkpt lat="46.12395287" lon="7.51563549"><ele>2448.134521</ele><time>2011-10-05T11:57:05Z</time></trkpt>
<trkpt lat="46.12575531" lon="7.51696587"><ele>2489.951904</ele><time>2011-10-05T12:09:30Z</time></trkpt>
<trkpt lat="46.12558365" lon="7.51550674"><ele>2495.719971</ele><time>2011-10-05T12:11:31Z</time></trkpt>
<trkpt lat="46.12607718" lon="7.51404762"><ele>2498.123047</ele><time>2011-10-05T12:14:36Z</time></trkpt>
<trkpt lat="46.12594843" lon="7.51411200"><ele>2499.084473</ele><time>2011-10-05T12:20:34Z</time></trkpt>
<trkpt lat="46.12601280" lon="7.51443386"><ele>2497.642578</ele><time>2011-10-05T12:20:43Z</time></trkpt>
<trkpt lat="46.12554073" lon="7.51574278"><ele>2501.00708</ele><time>2011-10-05T12:21:39Z</time></trkpt>
<trkpt lat="46.12575531" lon="7.51692295"><ele>2493.31665</ele><time>2011-10-05T12:36:58Z</time></trkpt>
<trkpt lat="46.12560511" lon="7.51698732"><ele>2491.393799</ele><time>2011-10-05T12:37:06Z</time></trkpt>
<trkpt lat="46.12399578" lon="7.51569986"><ele>2449.095947</ele><time>2011-10-05T12:38:03Z</time></trkpt>
<trkpt lat="46.12309456" lon="7.51563549"><ele>2436.598633</ele><time>2011-10-05T12:38:35Z</time></trkpt>
<trkpt lat="46.12234354" lon="7.51627922"><ele>2426.504883</ele><time>2011-10-05T12:38:56Z</time></trkpt>
<trkpt lat="46.12191439" lon="7.51703024"><ele>2417.372314</ele><time>2011-10-05T12:39:10Z</time></trkpt>
<trkpt lat="46.12152815" lon="7.52042055"><ele>2389.494141</ele><time>2011-10-05T12:39:58Z</time></trkpt>
<trkpt lat="46.12124920" lon="7.52106428"><ele>2383.726318</ele><time>2011-10-05T12:40:08Z</time></trkpt>
<trkpt lat="46.12122774" lon="7.52179384"><ele>2377.477539</ele><time>2011-10-05T12:40:18Z</time></trkpt>
<trkpt lat="46.12051964" lon="7.52333879"><ele>2360.173828</ele><time>2011-10-05T12:40:42Z</time></trkpt>
<trkpt lat="46.11961842" lon="7.52481937"><ele>2341.908936</ele><time>2011-10-05T12:41:06Z</time></trkpt>
<trkpt lat="46.11903906" lon="7.52451897"><ele>2332.295898</ele><time>2011-10-05T12:41:19Z</time></trkpt>
<trkpt lat="46.11845970" lon="7.52469063"><ele>2323.643799</ele><time>2011-10-05T12:41:31Z</time></trkpt>
<trkpt lat="46.11813784" lon="7.52567768"><ele>2312.588623</ele><time>2011-10-05T12:41:45Z</time></trkpt>
<trkpt lat="46.11800909" lon="7.52563477"><ele>2310.185303</ele><time>2011-10-05T12:41:50Z</time></trkpt>
<trkpt lat="46.11800909" lon="7.52550602"><ele>2308.743408</ele><time>2011-10-05T12:41:52Z</time></trkpt>
<trkpt lat="46.11818075" lon="7.52400398"><ele>2299.130127</ele><time>2011-10-05T12:42:13Z</time></trkpt>
<trkpt lat="46.11910343" lon="7.52252340"><ele>2283.749023</ele><time>2011-10-05T12:42:39Z</time></trkpt>
<trkpt lat="46.11929655" lon="7.52065659"><ele>2270.290771</ele><time>2011-10-05T12:43:04Z</time></trkpt>
<trkpt lat="46.11899614" lon="7.52149343"><ele>2259.235596</ele><time>2011-10-05T12:43:25Z</time></trkpt>
<trkpt lat="46.11854553" lon="7.52211571"><ele>2251.064209</ele><time>2011-10-05T12:43:38Z</time></trkpt>
<trkpt lat="46.11803055" lon="7.52218008"><ele>2244.334961</ele><time>2011-10-05T12:43:50Z</time></trkpt>
<trkpt lat="46.11757994" lon="7.52265215"><ele>2237.605957</ele><time>2011-10-05T12:44:02Z</time></trkpt>
<trkpt lat="46.11715078" lon="7.52370358"><ele>2227.031494</ele><time>2011-10-05T12:44:19Z</time></trkpt>
<trkpt lat="46.11702204" lon="7.52370358"><ele>2224.628174</ele><time>2011-10-05T12:44:26Z</time></trkpt>
<trkpt lat="46.11706495" lon="7.52297401"><ele>2219.34082</ele><time>2011-10-05T12:44:37Z</time></trkpt>
<trkpt lat="46.11740828" lon="7.52160072"><ele>2207.324463</ele><time>2011-10-05T12:44:55Z</time></trkpt>
<trkpt lat="46.11775160" lon="7.52099991"><ele>2201.556396</ele><time>2011-10-05T12:45:05Z</time></trkpt>
<trkpt lat="46.11785889" lon="7.51975536"><ele>2191.462646</ele><time>2011-10-05T12:45:20Z</time></trkpt>
<trkpt lat="46.11773014" lon="7.51915455"><ele>2185.213867</ele><time>2011-10-05T12:45:31Z</time></trkpt>
<trkpt lat="46.11747265" lon="7.51936913"><ele>2177.523438</ele><time>2011-10-05T12:45:38Z</time></trkpt>
<trkpt lat="46.11727953" lon="7.51973391"><ele>2172.236328</ele><time>2011-10-05T12:45:45Z</time></trkpt>
<trkpt lat="46.11736536" lon="7.52009869"><ele>2169.832764</ele><time>2011-10-05T12:45:50Z</time></trkpt>
<trkpt lat="46.11721516" lon="7.52042055"><ele>2168.390869</ele><time>2011-10-05T12:45:56Z</time></trkpt>
<trkpt lat="46.11648560" lon="7.52065659"><ele>2157.335938</ele><time>2011-10-05T12:46:11Z</time></trkpt>
<trkpt lat="46.11616373" lon="7.52132177"><ele>2151.087158</ele><time>2011-10-05T12:46:23Z</time></trkpt>
<trkpt lat="46.11603498" lon="7.52138615"><ele>2149.164551</ele><time>2011-10-05T12:46:27Z</time></trkpt>
<trkpt lat="46.11603498" lon="7.52108574"><ele>2146.280762</ele><time>2011-10-05T12:46:34Z</time></trkpt>
<trkpt lat="46.11618519" lon="7.52072096"><ele>2142.916016</ele><time>2011-10-05T12:46:43Z</time></trkpt>
<trkpt lat="46.11618519" lon="7.52009869"><ele>2137.147949</ele><time>2011-10-05T12:46:54Z</time></trkpt>
<trkpt lat="46.11605644" lon="7.52046347"><ele>2132.822021</ele><time>2011-10-05T12:47:01Z</time></trkpt>
<trkpt lat="46.11588478" lon="7.52054930"><ele>2130.418945</ele><time>2011-10-05T12:47:06Z</time></trkpt>
<trkpt lat="46.11560583" lon="7.52020597"><ele>2125.131592</ele><time>2011-10-05T12:47:16Z</time></trkpt>
<trkpt lat="46.11562729" lon="7.52007723"><ele>2123.689453</ele><time>2011-10-05T12:47:19Z</time></trkpt>
<trkpt lat="46.11511230" lon="7.52027035"><ele>2122.247559</ele><time>2011-10-05T12:47:40Z</time></trkpt>
<trkpt lat="46.11455441" lon="7.52121449"><ele>2118.402344</ele><time>2011-10-05T12:48:10Z</time></trkpt>
<trkpt lat="46.11386776" lon="7.52145052"><ele>2115.999023</ele><time>2011-10-05T12:48:25Z</time></trkpt>
<trkpt lat="46.11354589" lon="7.52202988"><ele>2113.595703</ele><time>2011-10-05T12:48:39Z</time></trkpt>
<trkpt lat="46.11277342" lon="7.52258778"><ele>2113.115234</ele><time>2011-10-05T12:49:06Z</time></trkpt>
<trkpt lat="46.11247301" lon="7.52308130"><ele>2110.711914</ele><time>2011-10-05T12:49:23Z</time></trkpt>
<trkpt lat="46.11206532" lon="7.52331734"><ele>2103.982666</ele><time>2011-10-05T12:49:36Z</time></trkpt>
<trkpt lat="46.11178637" lon="7.52370358"><ele>2097.253418</ele><time>2011-10-05T12:49:46Z</time></trkpt>
<trkpt lat="46.11086369" lon="7.52316713"><ele>2092.92749</ele><time>2011-10-05T12:50:08Z</time></trkpt>
<trkpt lat="46.11037016" lon="7.52310276"><ele>2084.756348</ele><time>2011-10-05T12:50:22Z</time></trkpt>
<trkpt lat="46.11021996" lon="7.52402544"><ele>2080.43042</ele><time>2011-10-05T12:50:40Z</time></trkpt>
<trkpt lat="46.10983372" lon="7.52436876"><ele>2076.585205</ele><time>2011-10-05T12:52:07Z</time></trkpt>
<trkpt lat="46.11002684" lon="7.52366066"><ele>2070.817139</ele><time>2011-10-05T12:52:23Z</time></trkpt>
<trkpt lat="46.10996246" lon="7.52325296"><ele>2067.933105</ele><time>2011-10-05T12:52:28Z</time></trkpt>
<trkpt lat="46.10955477" lon="7.52222300"><ele>2060.242676</ele><time>2011-10-05T12:52:45Z</time></trkpt>
<trkpt lat="46.10942602" lon="7.52273798"><ele>2053.513428</ele><time>2011-10-05T12:53:01Z</time></trkpt>
<trkpt lat="46.10914707" lon="7.52196550"><ele>2045.822998</ele><time>2011-10-05T12:53:15Z</time></trkpt>
<trkpt lat="46.10923290" lon="7.52168655"><ele>2043.900146</ele><time>2011-10-05T12:53:25Z</time></trkpt>
<trkpt lat="46.10914707" lon="7.52166510"><ele>2041.977539</ele><time>2011-10-05T12:53:27Z</time></trkpt>
<trkpt lat="46.10899687" lon="7.52194405"><ele>2038.613037</ele><time>2011-10-05T12:53:33Z</time></trkpt>
<trkpt lat="46.10906124" lon="7.52299547"><ele>2031.883789</ele><time>2011-10-05T12:53:46Z</time></trkpt>
<trkpt lat="46.10895395" lon="7.52346754"><ele>2028.519287</ele><time>2011-10-05T12:53:51Z</time></trkpt>
<trkpt lat="46.10871792" lon="7.52359629"><ele>2025.154297</ele><time>2011-10-05T12:53:57Z</time></trkpt>
<trkpt lat="46.10798836" lon="7.52310276"><ele>2018.906006</ele><time>2011-10-05T12:54:14Z</time></trkpt>
<trkpt lat="46.10743046" lon="7.52374649"><ele>2014.580078</ele><time>2011-10-05T12:54:25Z</time></trkpt>
<trkpt lat="46.10708714" lon="7.52329588"><ele>2013.138184</ele><time>2011-10-05T12:54:39Z</time></trkpt>
<trkpt lat="46.10702276" lon="7.52297401"><ele>2027.077148</ele><time>2011-10-05T12:56:21Z</time></trkpt>
<trkpt lat="46.10663652" lon="7.52258778"><ele>2022.751221</ele><time>2011-10-05T12:56:31Z</time></trkpt>
<trkpt lat="46.10534906" lon="7.52170801"><ele>2017.94458</ele><time>2011-10-05T12:56:52Z</time></trkpt>
<trkpt lat="46.10468388" lon="7.52263069"><ele>1998.237549</ele><time>2011-10-05T12:57:10Z</time></trkpt>
<trkpt lat="46.10388994" lon="7.52209425"><ele>1996.315186</ele><time>2011-10-05T12:57:30Z</time></trkpt>
<trkpt lat="46.10444784" lon="7.52198696"><ele>1996.315186</ele><time>2011-10-05T12:57:42Z</time></trkpt>
<trkpt lat="46.10457659" lon="7.52166510"><ele>1996.315186</ele><time>2011-10-05T12:57:46Z</time></trkpt>
<trkpt lat="46.10451221" lon="7.52052784"><ele>1989.585693</ele><time>2011-10-05T12:58:02Z</time></trkpt>
<trkpt lat="46.10625029" lon="7.52035618"><ele>1985.259766</ele><time>2011-10-05T12:58:27Z</time></trkpt>
<trkpt lat="46.10652924" lon="7.52052784"><ele>1984.298584</ele><time>2011-10-05T12:58:34Z</time></trkpt>
<trkpt lat="46.10674381" lon="7.52089262"><ele>1983.817871</ele><time>2011-10-05T12:58:40Z</time></trkpt>
<trkpt lat="46.10687256" lon="7.52050638"><ele>1979.491699</ele><time>2011-10-05T12:58:47Z</time></trkpt>
<trkpt lat="46.10672235" lon="7.51915455"><ele>1944.403564</ele><time>2011-10-05T12:59:04Z</time></trkpt>
<trkpt lat="46.10678673" lon="7.51878977"><ele>1939.116455</ele><time>2011-10-05T12:59:10Z</time></trkpt>
<trkpt lat="46.10719442" lon="7.51808167"><ele>1922.77417</ele><time>2011-10-05T13:00:10Z</time></trkpt>
<trkpt lat="46.10721588" lon="7.51748085"><ele>1910.757568</ele><time>2011-10-05T13:00:22Z</time></trkpt>
<trkpt lat="46.10708714" lon="7.51816750"><ele>1901.625244</ele><time>2011-10-05T13:00:31Z</time></trkpt>
<trkpt lat="46.10659361" lon="7.51878977"><ele>1897.299072</ele><time>2011-10-05T13:00:40Z</time></trkpt>
<trkpt lat="46.10627174" lon="7.51971245"><ele>1892.011963</ele><time>2011-10-05T13:00:55Z</time></trkpt>
<trkpt lat="46.10558510" lon="7.51932621"><ele>1891.050537</ele><time>2011-10-05T13:01:06Z</time></trkpt>
<trkpt lat="46.10500574" lon="7.51848936"><ele>1890.089355</ele><time>2011-10-05T13:01:22Z</time></trkpt>
<trkpt lat="46.10412598" lon="7.51795292"><ele>1888.166748</ele><time>2011-10-05T13:01:44Z</time></trkpt>
<trkpt lat="46.10316038" lon="7.51874685"><ele>1867.498047</ele><time>2011-10-05T13:02:38Z</time></trkpt>
<trkpt lat="46.10316038" lon="7.51827478"><ele>1865.575684</ele><time>2011-10-05T13:02:46Z</time></trkpt>
<trkpt lat="46.10303164" lon="7.51818895"><ele>1863.172363</ele><time>2011-10-05T13:02:50Z</time></trkpt>
<trkpt lat="46.10174417" lon="7.51853228"><ele>1839.139404</ele><time>2011-10-05T13:03:16Z</time></trkpt>
<trkpt lat="46.10176563" lon="7.51833916"><ele>1835.774658</ele><time>2011-10-05T13:03:20Z</time></trkpt>
<trkpt lat="46.10213041" lon="7.51814604"><ele>1830.487549</ele><time>2011-10-05T13:03:29Z</time></trkpt>
<trkpt lat="46.10253811" lon="7.51754522"><ele>1817.509521</ele><time>2011-10-05T13:03:55Z</time></trkpt>
<trkpt lat="46.10290289" lon="7.51741648"><ele>1806.45459</ele><time>2011-10-05T13:08:02Z</time></trkpt>
<trkpt lat="46.10361099" lon="7.51666546"><ele>1805.493408</ele><time>2011-10-05T13:08:22Z</time></trkpt>
<trkpt lat="46.10358953" lon="7.51604319"><ele>1800.206055</ele><time>2011-10-05T13:08:37Z</time></trkpt>
<trkpt lat="46.10491991" lon="7.51608610"><ele>1789.631592</ele><time>2011-10-05T13:09:11Z</time></trkpt>
<trkpt lat="46.10513449" lon="7.51514196"><ele>1783.863525</ele><time>2011-10-05T13:09:30Z</time></trkpt>
<trkpt lat="46.10558510" lon="7.51426220"><ele>1778.095703</ele><time>2011-10-05T13:09:51Z</time></trkpt>
<trkpt lat="46.10554218" lon="7.51344681"><ele>1766.559814</ele><time>2011-10-05T13:10:09Z</time></trkpt>
<trkpt lat="46.10571384" lon="7.51331806"><ele>1765.11792</ele><time>2011-10-05T13:10:16Z</time></trkpt>
<trkpt lat="46.10567093" lon="7.51321077"><ele>1763.195313</ele><time>2011-10-05T13:10:22Z</time></trkpt>
<trkpt lat="46.10522032" lon="7.51303911"><ele>1759.830566</ele><time>2011-10-05T13:10:34Z</time></trkpt>
<trkpt lat="46.10438347" lon="7.51430511"><ele>1750.697998</ele><time>2011-10-05T13:10:51Z</time></trkpt>
<trkpt lat="46.10397577" lon="7.51454115"><ele>1747.814209</ele><time>2011-10-05T13:10:56Z</time></trkpt>
<trkpt lat="46.10303164" lon="7.51439095"><ele>1741.084961</ele><time>2011-10-05T13:11:07Z</time></trkpt>
<trkpt lat="46.10208750" lon="7.51394033"><ele>1729.068359</ele><time>2011-10-05T13:11:20Z</time></trkpt>
<trkpt lat="46.10028505" lon="7.51398325"><ele>1705.516113</ele><time>2011-10-05T13:11:45Z</time></trkpt>
<trkpt lat="46.09914780" lon="7.51466990"><ele>1689.173584</ele><time>2011-10-05T13:12:17Z</time></trkpt>
</trkseg></trk></gpx>